createdAt,value
2018-07-22T00:00:14.633Z,99.90
2018-07-22T00:02:43.196Z,99.90
2018-07-22T00:07:40.323Z,99.90
2018-07-22T00:10:20.895Z,99.90
2018-07-22T00:12:49.452Z,99.90
2018-07-22T00:15:18.008Z,99.90
2018-07-22T00:17:46.547Z,99.90
2018-07-22T00:20:15.295Z,99.90
2018-07-22T00:22:43.848Z,99.90
2018-07-22T00:25:12.772Z,99.90
2018-07-22T00:27:41.356Z,99.90
2018-07-22T00:30:10.352Z,99.90
2018-07-22T00:32:40.266Z,99.90
2018-07-22T00:35:09.317Z,99.90
2018-07-22T00:37:38.391Z,99.90
2018-07-22T00:40:07.812Z,99.90
2018-07-22T00:42:36.570Z,99.90
2018-07-22T00:45:06.213Z,99.90
2018-07-22T00:47:34.710Z,99.90
2018-07-22T00:50:03.451Z,99.90
2018-07-22T00:52:31.940Z,99.90
2018-07-22T00:55:00.647Z,99.90
2018-07-22T00:57:29.258Z,99.90
2018-07-22T00:59:58.104Z,99.90
2018-07-22T01:02:26.553Z,99.90
2018-07-22T01:04:55.285Z,99.90
2018-07-22T01:07:23.873Z,99.90
2018-07-22T01:09:52.661Z,99.90
2018-07-22T01:12:21.589Z,99.90
2018-07-22T01:14:50.246Z,99.90
2018-07-22T01:17:18.748Z,99.90
2018-07-22T01:19:47.537Z,99.90
2018-07-22T01:22:16.006Z,99.90
2018-07-22T01:24:44.843Z,99.90
2018-07-22T01:27:13.457Z,99.90
2018-07-22T01:29:42.192Z,99.90
2018-07-22T01:32:10.757Z,99.90
2018-07-22T01:34:39.301Z,99.90
2018-07-22T01:37:07.817Z,99.90
2018-07-22T01:39:36.392Z,99.90
2018-07-22T01:42:04.873Z,99.90
2018-07-22T01:44:33.339Z,99.90
2018-07-22T01:47:01.821Z,99.90
2018-07-22T01:49:30.398Z,99.90
2018-07-22T01:51:58.908Z,99.90
2018-07-22T01:54:27.651Z,99.90
2018-07-22T01:56:56.301Z,99.90
2018-07-22T01:59:24.861Z,99.90
2018-07-22T02:01:53.352Z,99.90
2018-07-22T02:04:22.098Z,99.90
2018-07-22T02:06:50.598Z,99.90
2018-07-22T02:09:19.095Z,99.90
2018-07-22T02:11:47.664Z,99.90
2018-07-22T02:14:16.171Z,99.90
2018-07-22T02:16:44.659Z,99.90
2018-07-22T02:19:13.314Z,99.90
2018-07-22T02:21:41.764Z,99.90
2018-07-22T02:24:10.414Z,99.90
2018-07-22T02:26:38.901Z,99.90
2018-07-22T02:29:07.571Z,99.90
2018-07-22T02:31:36.069Z,99.90
2018-07-22T02:34:04.635Z,99.90
2018-07-22T02:36:33.135Z,99.90
2018-07-22T02:39:01.922Z,99.90
2018-07-22T02:41:30.475Z,99.90
2018-07-22T02:43:59.202Z,99.90
2018-07-22T02:46:27.737Z,99.90
2018-07-22T02:48:56.585Z,99.90
2018-07-22T02:51:25.160Z,99.90
2018-07-22T02:53:53.842Z,99.90
2018-07-22T02:56:22.330Z,99.90
2018-07-22T02:58:51.020Z,99.90
2018-07-22T03:01:19.611Z,99.90
2018-07-22T03:03:48.317Z,99.90
2018-07-22T03:06:16.876Z,99.90
2018-07-22T03:08:45.592Z,99.90
2018-07-22T03:11:14.078Z,99.90
2018-07-22T03:13:42.640Z,99.90
2018-07-22T03:16:11.151Z,99.90
2018-07-22T03:18:39.658Z,99.90
2018-07-22T03:21:08.181Z,99.90
2018-07-22T03:23:36.828Z,99.90
2018-07-22T03:26:05.582Z,99.90
2018-07-22T03:28:34.091Z,99.90
2018-07-22T03:31:02.597Z,99.90
2018-07-22T03:33:31.106Z,99.90
2018-07-22T03:35:59.597Z,99.90
2018-07-22T03:38:28.324Z,99.90
2018-07-22T03:40:56.914Z,99.90
2018-07-22T03:43:25.453Z,99.90
2018-07-22T03:45:53.920Z,99.90
2018-07-22T03:48:22.703Z,99.90
2018-07-22T03:50:51.188Z,99.90
2018-07-22T03:53:19.712Z,99.90
2018-07-22T03:55:48.187Z,99.90
2018-07-22T03:58:16.830Z,99.90
2018-07-22T04:00:45.324Z,99.90
2018-07-22T04:03:13.981Z,99.90
2018-07-22T04:05:42.474Z,99.90
2018-07-22T04:08:10.963Z,99.90
2018-07-22T04:10:39.430Z,99.90
2018-07-22T04:13:08.234Z,99.90
2018-07-22T04:15:36.733Z,99.90
2018-07-22T04:18:05.419Z,99.90
2018-07-22T04:20:33.903Z,99.90
2018-07-22T04:23:02.463Z,99.90
2018-07-22T04:25:30.996Z,99.90
2018-07-22T04:27:59.576Z,99.90
2018-07-22T04:30:28.220Z,99.90
2018-07-22T04:32:56.943Z,99.90
2018-07-22T04:35:25.432Z,99.90
2018-07-22T04:37:54.209Z,99.90
2018-07-22T04:40:22.698Z,99.90
2018-07-22T04:42:51.394Z,99.90
2018-07-22T04:45:19.906Z,99.90
2018-07-22T04:47:48.535Z,99.90
2018-07-22T04:50:17.135Z,99.90
2018-07-22T04:52:45.698Z,99.90
2018-07-22T04:55:14.204Z,99.90
2018-07-22T04:57:42.791Z,99.90
2018-07-22T05:00:18.463Z,99.90
2018-07-22T05:02:47.148Z,99.90
2018-07-22T05:07:43.793Z,99.90
2018-07-22T05:10:12.288Z,99.90
2018-07-22T05:12:41.001Z,99.90
2018-07-22T05:15:09.517Z,99.90
2018-07-22T05:17:38.266Z,99.90
2018-07-22T05:20:06.765Z,99.90
2018-07-22T05:22:35.559Z,99.90
2018-07-22T05:25:04.083Z,99.90
2018-07-22T05:27:32.594Z,99.90
2018-07-22T05:30:01.098Z,99.90
2018-07-22T05:32:29.646Z,99.90
2018-07-22T05:34:58.167Z,99.90
2018-07-22T05:37:26.720Z,99.90
2018-07-22T05:39:55.227Z,99.90
2018-07-22T05:42:23.760Z,99.90
2018-07-22T05:44:52.402Z,99.90
2018-07-22T05:47:21.203Z,99.90
2018-07-22T05:49:49.742Z,99.90
2018-07-22T05:52:18.594Z,99.90
2018-07-22T05:54:47.126Z,99.90
2018-07-22T05:57:15.975Z,99.90
2018-07-22T05:59:44.456Z,99.90
2018-07-22T06:02:13.058Z,99.90
2018-07-22T06:04:41.535Z,99.90
2018-07-22T06:07:10.102Z,99.90
2018-07-22T06:09:38.586Z,99.90
2018-07-22T06:12:07.345Z,99.90
2018-07-22T06:14:35.964Z,99.90
2018-07-22T06:17:04.978Z,99.90
2018-07-22T06:19:33.585Z,99.90
2018-07-22T06:22:02.255Z,99.90
2018-07-22T06:24:30.869Z,99.90
2018-07-22T06:26:59.440Z,99.90
2018-07-22T06:29:28.004Z,99.90
2018-07-22T06:31:56.567Z,99.90
2018-07-22T06:34:25.314Z,99.90
2018-07-22T06:36:53.876Z,99.90
2018-07-22T06:39:22.460Z,99.90
2018-07-22T06:41:51.016Z,99.90
2018-07-22T06:44:19.559Z,99.90
2018-07-22T06:46:48.362Z,99.90
2018-07-22T06:49:16.874Z,99.90
2018-07-22T06:51:45.506Z,99.90
2018-07-22T06:54:14.071Z,99.90
2018-07-22T06:56:42.646Z,99.90
2018-07-22T06:59:11.143Z,99.90
2018-07-22T07:01:39.748Z,99.90
2018-07-22T07:04:08.251Z,99.90
2018-07-22T07:06:36.873Z,99.90
2018-07-22T07:09:09.344Z,99.90
2018-07-22T07:11:38.283Z,99.90
2018-07-22T07:14:06.864Z,99.90
2018-07-22T07:16:35.402Z,99.90
2018-07-22T07:19:03.977Z,99.90
2018-07-22T07:21:32.753Z,99.90
2018-07-22T07:24:01.255Z,99.90
2018-07-22T07:26:30.045Z,99.90
2018-07-22T07:28:58.634Z,99.90
2018-07-22T07:31:27.162Z,99.90
2018-07-22T07:33:55.671Z,99.90
2018-07-22T07:36:24.383Z,99.90
2018-07-22T07:38:52.877Z,99.90
2018-07-22T07:41:21.444Z,99.90
2018-07-22T07:43:49.942Z,99.90
2018-07-22T07:46:18.824Z,99.90
2018-07-22T07:48:47.393Z,99.90
2018-07-22T07:51:16.127Z,99.90
2018-07-22T07:53:44.626Z,99.90
2018-07-22T07:56:13.182Z,99.90
2018-07-22T07:58:41.744Z,99.90
2018-07-22T08:01:10.291Z,99.90
2018-07-22T08:03:38.779Z,99.90
2018-07-22T08:06:07.538Z,99.90
2018-07-22T08:08:35.994Z,99.90
2018-07-22T08:11:04.712Z,99.90
2018-07-22T08:13:33.242Z,99.90
2018-07-22T08:16:01.811Z,99.90
2018-07-22T08:18:30.370Z,99.90
2018-07-22T08:20:59.174Z,99.90
2018-07-22T08:23:27.692Z,99.90
2018-07-22T08:25:56.690Z,99.90
2018-07-22T08:28:36.568Z,99.90
2018-07-22T08:31:05.242Z,99.90
2018-07-22T08:33:33.782Z,99.90
2018-07-22T08:36:02.599Z,99.90
2018-07-22T08:38:31.161Z,99.90
2018-07-22T08:40:59.729Z,99.90
2018-07-22T08:43:28.398Z,99.90
2018-07-22T08:45:57.156Z,99.90
2018-07-22T08:48:25.715Z,99.90
2018-07-22T08:50:54.387Z,99.90
2018-07-22T08:53:22.976Z,99.90
2018-07-22T08:55:52.074Z,99.90
2018-07-22T08:58:20.581Z,99.90
2018-07-22T09:00:49.166Z,99.90
2018-07-22T09:03:17.748Z,99.90
2018-07-22T09:05:46.576Z,99.90
2018-07-22T09:08:15.135Z,99.90
2018-07-22T09:10:43.916Z,99.90
2018-07-22T09:13:12.414Z,99.90
2018-07-22T09:15:41.143Z,99.90
2018-07-22T09:18:09.774Z,99.90
2018-07-22T09:20:38.290Z,99.90
2018-07-22T09:23:06.802Z,99.90
2018-07-22T09:25:35.534Z,99.90
2018-07-22T09:28:04.092Z,99.90
2018-07-22T09:30:32.941Z,99.90
2018-07-22T09:33:01.474Z,99.90
2018-07-22T09:35:30.308Z,99.90
2018-07-22T09:37:58.916Z,99.90
2018-07-22T09:40:27.563Z,99.90
2018-07-22T09:42:56.162Z,99.90
2018-07-22T09:45:24.676Z,99.90
2018-07-22T09:47:53.300Z,99.90
2018-07-22T09:50:22.035Z,99.90
2018-07-22T09:52:50.676Z,99.90
2018-07-22T09:55:19.307Z,99.90
2018-07-22T09:57:48.206Z,99.90
2018-07-22T10:00:22.428Z,99.90
2018-07-22T10:02:50.944Z,99.90
2018-07-22T10:05:19.718Z,99.90
2018-07-22T10:07:48.286Z,99.90
2018-07-22T10:10:17.099Z,99.90
2018-07-22T10:12:45.645Z,99.90
2018-07-22T10:15:14.459Z,99.90
2018-07-22T10:17:43.051Z,99.90
2018-07-22T10:20:11.938Z,99.90
2018-07-22T10:22:40.561Z,99.90
2018-07-22T10:25:09.575Z,99.90
2018-07-22T10:27:38.072Z,99.90
2018-07-22T10:30:06.906Z,99.90
2018-07-22T10:32:35.459Z,99.90
2018-07-22T10:37:32.422Z,99.90
2018-07-22T10:40:01.051Z,99.90
2018-07-22T10:42:29.720Z,99.90
2018-07-22T10:44:58.531Z,99.90
2018-07-22T10:47:27.050Z,99.90
2018-07-22T10:49:55.829Z,99.90
2018-07-22T10:52:24.423Z,99.30
2018-07-22T10:54:53.259Z,99.90
2018-07-22T10:57:21.801Z,99.90
2018-07-22T10:59:50.582Z,99.60
2018-07-22T11:02:19.188Z,99.90
2018-07-22T11:04:48.049Z,99.90
2018-07-22T11:07:16.627Z,99.90
2018-07-22T11:09:45.426Z,99.90
2018-07-22T11:12:13.914Z,98.30
2018-07-22T11:14:42.607Z,98.10
2018-07-22T11:17:11.108Z,96.10
2018-07-22T11:19:40.020Z,96.60
2018-07-22T11:22:09.045Z,94.30
2018-07-22T11:24:37.878Z,94.20
2018-07-22T11:27:06.756Z,92.70
2018-07-22T11:29:35.852Z,96.30
2018-07-22T11:32:04.350Z,96.10
2018-07-22T11:34:32.971Z,97.40
2018-07-22T11:37:01.561Z,95.30
2018-07-22T11:39:30.316Z,94.70
2018-07-22T11:41:58.929Z,94.90
2018-07-22T11:44:27.517Z,95.10
2018-07-22T11:46:56.134Z,94.30
2018-07-22T11:49:24.915Z,95.50
2018-07-22T11:51:53.411Z,97.50
2018-07-22T11:54:21.983Z,97.30
2018-07-22T11:56:51.027Z,94.10
2018-07-22T11:59:19.601Z,93.00
2018-07-22T12:01:48.170Z,94.10
2018-07-22T12:04:17.009Z,94.50
2018-07-22T12:06:45.789Z,96.70
2018-07-22T12:09:14.575Z,94.90
2018-07-22T12:11:43.415Z,93.80
2018-07-22T12:14:12.275Z,92.40
2018-07-22T12:16:40.835Z,92.10
2018-07-22T12:19:09.776Z,92.60
2018-07-22T12:21:38.426Z,92.90
2018-07-22T12:24:07.062Z,94.00
2018-07-22T12:26:35.604Z,92.50
2018-07-22T12:29:04.158Z,91.80
2018-07-22T12:31:32.857Z,90.70
2018-07-22T12:34:01.433Z,92.00
2018-07-22T12:36:30.047Z,90.10
2018-07-22T12:38:58.639Z,91.20
2018-07-22T12:41:27.685Z,91.80
2018-07-22T12:43:56.237Z,91.20
2018-07-22T12:46:25.122Z,91.10
2018-07-22T12:48:53.677Z,88.90
2018-07-22T12:51:22.760Z,89.60
2018-07-22T12:53:51.271Z,88.50
2018-07-22T12:56:19.929Z,88.60
2018-07-22T12:58:48.469Z,86.90
2018-07-22T13:01:17.412Z,81.50
2018-07-22T13:03:45.945Z,83.10
2018-07-22T13:06:14.658Z,84.50
2018-07-22T13:08:44.094Z,76.20
2018-07-22T13:11:12.977Z,75.60
2018-07-22T13:13:41.607Z,80.50
2018-07-22T13:16:10.451Z,80.90
2018-07-22T13:18:39.223Z,78.50
2018-07-22T13:21:07.931Z,79.00
2018-07-22T13:23:36.552Z,76.50
2018-07-22T13:26:05.302Z,78.30
2018-07-22T13:28:33.864Z,77.10
2018-07-22T13:31:02.677Z,76.60
2018-07-22T13:33:31.385Z,77.00
2018-07-22T13:36:00.039Z,76.80
2018-07-22T13:38:28.640Z,75.50
2018-07-22T13:40:57.388Z,81.40
2018-07-22T13:43:25.957Z,75.00
2018-07-22T13:45:55.175Z,78.60
2018-07-22T13:48:23.800Z,81.40
2018-07-22T13:50:52.394Z,77.90
2018-07-22T13:53:20.948Z,77.50
2018-07-22T13:55:49.613Z,76.80
2018-07-22T13:58:18.258Z,77.80
2018-07-22T14:00:47.090Z,77.20
2018-07-22T14:03:15.708Z,79.30
2018-07-22T14:05:44.678Z,76.90
2018-07-22T14:08:13.322Z,78.30
2018-07-22T14:10:41.986Z,76.20
2018-07-22T14:13:10.518Z,77.40
2018-07-22T14:15:39.380Z,77.10
2018-07-22T14:18:07.951Z,74.20
2018-07-22T14:20:36.495Z,72.30
2018-07-22T14:23:05.033Z,73.50
2018-07-22T14:25:33.852Z,75.70
2018-07-22T14:28:02.428Z,75.90
2018-07-22T14:30:30.974Z,73.50
2018-07-22T14:32:59.706Z,74.90
2018-07-22T14:35:28.511Z,73.90
2018-07-22T14:37:57.042Z,75.20
2018-07-22T14:40:25.785Z,78.70
2018-07-22T14:42:54.423Z,73.80
2018-07-22T14:45:23.172Z,72.40
2018-07-22T14:47:51.824Z,73.10
2018-07-22T14:50:20.661Z,74.00
2018-07-22T14:52:49.219Z,73.50
2018-07-22T14:55:17.936Z,73.90
2018-07-22T14:57:46.453Z,74.80
2018-07-22T15:00:15.163Z,77.50
2018-07-22T15:02:43.802Z,75.70
2018-07-22T15:05:12.404Z,74.80
2018-07-22T15:07:41.064Z,73.90
2018-07-22T15:10:09.688Z,74.40
2018-07-22T15:12:38.274Z,73.40
2018-07-22T15:15:07.030Z,73.10
2018-07-22T15:17:35.656Z,74.30
2018-07-22T15:20:04.629Z,74.70
2018-07-22T15:22:33.175Z,77.60
2018-07-22T15:25:01.759Z,76.00
2018-07-22T15:27:30.605Z,80.90
2018-07-22T15:29:59.186Z,81.10
2018-07-22T15:32:27.763Z,84.40
2018-07-22T15:34:56.321Z,80.40
2018-07-22T15:37:24.841Z,81.10
2018-07-22T15:39:53.430Z,83.60
2018-07-22T15:42:21.947Z,80.30
2018-07-22T15:44:50.648Z,83.30
2018-07-22T15:47:19.196Z,80.80
2018-07-22T15:49:47.866Z,82.90
2018-07-22T15:52:16.459Z,86.80
2018-07-22T15:54:45.273Z,88.30
2018-07-22T15:57:14.000Z,88.40
2018-07-22T15:59:42.659Z,85.70
2018-07-22T16:02:11.234Z,85.70
2018-07-22T16:04:39.999Z,84.00
2018-07-22T16:07:08.491Z,87.10
2018-07-22T16:09:37.055Z,85.00
2018-07-22T16:12:05.639Z,87.20
2018-07-22T16:14:34.257Z,89.30
2018-07-22T16:17:02.822Z,89.50
2018-07-22T16:19:31.634Z,88.90
2018-07-22T16:24:28.705Z,90.90
2018-07-22T16:26:57.237Z,91.10
2018-07-22T16:29:25.990Z,91.60
2018-07-22T16:31:54.523Z,91.30
2018-07-22T16:34:23.346Z,91.40
2018-07-22T16:36:51.964Z,92.00
2018-07-22T16:39:20.888Z,93.20
2018-07-22T16:41:49.471Z,93.10
2018-07-22T16:44:18.142Z,92.00
2018-07-22T16:46:46.729Z,92.90
2018-07-22T16:49:15.528Z,96.00
2018-07-22T16:51:44.179Z,97.50
2018-07-22T16:56:41.018Z,99.90
2018-07-22T16:59:09.551Z,99.90
2018-07-22T17:01:38.095Z,99.90
2018-07-22T17:04:06.933Z,99.90
2018-07-22T17:06:35.595Z,99.90
2018-07-22T17:09:06.728Z,99.90
2018-07-22T17:11:35.287Z,99.90
2018-07-22T17:14:03.824Z,99.90
2018-07-22T17:16:32.547Z,99.90
2018-07-22T17:19:01.184Z,99.90
2018-07-22T17:21:29.779Z,99.90
2018-07-22T17:23:58.708Z,99.90
2018-07-22T17:26:27.311Z,99.90
2018-07-22T17:28:56.078Z,99.90
2018-07-22T17:31:24.602Z,99.90
2018-07-22T17:33:53.361Z,99.90
2018-07-22T17:36:21.919Z,99.90
2018-07-22T17:38:50.669Z,99.90
2018-07-22T17:41:19.217Z,99.90
2018-07-22T17:43:47.810Z,99.90
2018-07-22T17:46:16.318Z,99.90
2018-07-22T17:48:45.019Z,99.90
2018-07-22T17:51:13.716Z,99.90
2018-07-22T17:53:42.403Z,99.90
2018-07-22T17:56:10.989Z,99.90
2018-07-22T17:58:39.751Z,99.90
2018-07-22T18:01:08.450Z,99.90
2018-07-22T18:03:37.304Z,99.90
2018-07-22T18:06:06.003Z,99.90
2018-07-22T18:08:34.602Z,99.90
2018-07-22T18:11:03.184Z,99.90
2018-07-22T18:13:31.802Z,99.90
2018-07-22T18:16:00.380Z,99.90
2018-07-22T18:18:28.959Z,99.90
2018-07-22T18:20:57.615Z,99.90
2018-07-22T18:23:26.344Z,99.90
2018-07-22T18:25:55.095Z,99.90
2018-07-22T18:28:23.987Z,99.90
2018-07-22T18:30:52.683Z,99.90
2018-07-22T18:33:21.219Z,99.90
2018-07-22T18:35:49.786Z,99.90
2018-07-22T18:38:18.576Z,99.90
2018-07-22T18:40:47.339Z,99.90
2018-07-22T18:43:16.044Z,99.90
2018-07-22T18:45:44.663Z,99.90
2018-07-22T18:48:13.306Z,99.90
2018-07-22T18:50:41.937Z,99.90
2018-07-22T18:53:10.639Z,99.90
2018-07-22T18:55:39.237Z,99.90
2018-07-22T18:58:08.105Z,99.90
2018-07-22T19:00:36.740Z,99.90
2018-07-22T19:03:05.792Z,99.90
2018-07-22T19:05:34.357Z,99.90
2018-07-22T19:08:03.145Z,99.90
2018-07-22T19:10:31.908Z,99.90
2018-07-22T19:13:00.871Z,99.90
2018-07-22T19:15:29.534Z,99.90
2018-07-22T19:17:58.335Z,99.90
2018-07-22T19:20:26.956Z,99.90
2018-07-22T19:22:55.522Z,99.90
2018-07-22T19:25:24.217Z,99.90
2018-07-22T19:27:53.249Z,99.90
2018-07-22T19:30:21.996Z,99.90
2018-07-22T19:32:50.893Z,99.90
2018-07-22T19:35:19.604Z,99.90
2018-07-22T19:37:48.303Z,99.90
2018-07-22T19:40:16.908Z,99.90
2018-07-22T19:42:45.648Z,99.90
2018-07-22T19:45:14.199Z,99.90
2018-07-22T19:47:43.024Z,99.90
2018-07-22T19:50:11.519Z,99.90
2018-07-22T19:52:40.184Z,99.90
2018-07-22T19:55:08.889Z,99.90
2018-07-22T19:57:37.836Z,99.90
2018-07-22T20:00:06.411Z,99.90
2018-07-22T20:02:35.007Z,99.90
2018-07-22T20:05:03.845Z,99.90
2018-07-22T20:07:32.777Z,99.90
2018-07-22T20:10:01.528Z,99.90
2018-07-22T20:12:30.347Z,99.90
2018-07-22T20:14:58.912Z,99.90
2018-07-22T20:17:27.883Z,99.90
2018-07-22T20:19:56.768Z,99.90
2018-07-22T20:22:25.906Z,99.90
2018-07-22T20:24:54.801Z,99.90
2018-07-22T20:27:23.856Z,99.90
2018-07-22T20:29:52.567Z,99.90
2018-07-22T20:34:49.766Z,99.90
2018-07-22T20:37:18.751Z,99.90
2018-07-22T20:39:47.374Z,99.90
2018-07-22T20:42:16.173Z,99.90
2018-07-22T20:44:45.375Z,99.90
2018-07-22T20:47:14.299Z,99.90
2018-07-22T20:49:43.037Z,99.90
2018-07-22T20:52:11.935Z,99.90
2018-07-22T20:54:40.851Z,99.90
2018-07-22T20:57:09.618Z,99.90
2018-07-22T20:59:38.351Z,99.90
2018-07-22T21:02:07.749Z,99.90
2018-07-22T21:04:36.706Z,99.90
2018-07-22T21:07:06.028Z,99.90
2018-07-22T21:09:34.804Z,99.90
2018-07-22T21:13:16.256Z,99.90
2018-07-22T21:15:44.893Z,99.90
2018-07-22T21:18:14.642Z,99.90
2018-07-22T21:20:43.524Z,99.90
2018-07-22T21:23:12.579Z,99.90
2018-07-22T21:25:41.465Z,99.90
2018-07-22T21:28:10.160Z,99.90
2018-07-22T21:30:38.897Z,99.90
2018-07-22T21:33:07.815Z,99.90
2018-07-22T21:35:36.404Z,99.90
2018-07-22T21:38:05.521Z,99.90
2018-07-22T21:40:34.107Z,99.90
2018-07-22T21:43:02.871Z,99.90
2018-07-22T21:45:31.444Z,99.90
2018-07-22T21:48:00.358Z,99.90
2018-07-22T21:50:28.893Z,99.90
2018-07-22T21:52:57.631Z,99.90
2018-07-22T21:55:26.152Z,99.90
2018-07-22T21:57:54.715Z,99.90
2018-07-22T22:00:31.021Z,99.90
2018-07-22T22:03:00.965Z,99.90
2018-07-22T22:05:29.490Z,99.90
2018-07-22T22:07:58.262Z,99.90
2018-07-22T22:10:27.205Z,99.90
2018-07-22T22:12:56.321Z,99.90
2018-07-22T22:15:26.795Z,99.90
2018-07-22T22:17:57.069Z,99.90
2018-07-22T22:20:26.034Z,99.90
2018-07-22T22:22:55.105Z,99.90
2018-07-22T22:25:23.622Z,99.90
2018-07-22T22:27:52.393Z,99.90
2018-07-22T22:30:21.042Z,99.90
2018-07-22T22:32:49.859Z,99.90
2018-07-22T22:35:18.401Z,99.90
2018-07-22T22:37:47.151Z,99.90
2018-07-22T22:40:16.037Z,99.90
2018-07-22T22:42:45.855Z,99.90
2018-07-22T22:45:14.993Z,99.90
2018-07-22T22:47:43.620Z,99.90
2018-07-22T22:50:12.184Z,99.90
2018-07-22T22:52:41.130Z,99.90
2018-07-22T22:55:09.972Z,99.90
2018-07-22T22:57:38.739Z,99.90
2018-07-22T23:00:07.796Z,99.90
2018-07-22T23:02:37.916Z,99.90
2018-07-22T23:05:07.909Z,99.90
2018-07-22T23:07:36.826Z,99.90
2018-07-22T23:10:05.874Z,99.90
2018-07-22T23:12:34.869Z,99.90
2018-07-22T23:15:03.484Z,99.90
2018-07-22T23:17:32.202Z,99.90
2018-07-22T23:20:00.883Z,99.90
2018-07-22T23:22:29.491Z,99.90
2018-07-22T23:24:58.038Z,99.90
2018-07-22T23:27:26.624Z,99.90
2018-07-22T23:29:55.190Z,99.90
2018-07-22T23:32:23.967Z,99.90
2018-07-22T23:34:52.562Z,99.90
2018-07-22T23:37:21.175Z,99.90
2018-07-22T23:39:49.771Z,99.90
2018-07-22T23:42:18.375Z,99.90
2018-07-22T23:44:46.931Z,99.90
2018-07-22T23:47:15.738Z,99.90
2018-07-22T23:49:44.351Z,99.90
2018-07-22T23:52:13.067Z,99.90
2018-07-22T23:54:41.661Z,99.90
2018-07-22T23:57:10.343Z,99.90
2018-07-22T23:59:38.947Z,99.90
